createdAt,value
2019-04-22T00:00:42.467Z,4.17
2019-04-22T00:03:14.624Z,4.25
2019-04-22T00:06:00.942Z,4.20
2019-04-22T00:08:38.969Z,4.60
2019-04-22T00:11:13.220Z,3.80
2019-04-22T00:13:43.887Z,4.35
2019-04-22T00:16:07.153Z,4.08
2019-04-22T00:18:59.112Z,4.05
2019-04-22T00:21:12.956Z,4.53
2019-04-22T00:23:39.131Z,3.90
2019-04-22T00:26:16.576Z,3.93
2019-04-22T00:28:43.805Z,4.47
2019-04-22T00:31:38.542Z,4.37
2019-04-22T00:34:06.749Z,4.20
2019-04-22T00:36:36.604Z,4.20
2019-04-22T00:39:08.865Z,4.25
2019-04-22T00:41:35.867Z,4.45
2019-04-22T00:44:12.045Z,4.58
2019-04-22T00:46:44.069Z,4.22
2019-04-22T00:49:52.899Z,4.10
2019-04-22T00:51:49.967Z,4.33
2019-04-22T00:54:11.910Z,4.00
2019-04-22T00:56:32.843Z,4.50
2019-04-22T00:59:06.793Z,4.03
2019-04-22T01:01:36.903Z,4.42
2019-04-22T01:04:14.327Z,4.30
2019-04-22T01:06:42.762Z,4.17
2019-04-22T01:09:10.511Z,4.47
2019-04-22T01:11:38.430Z,4.58
2019-04-22T01:14:09.298Z,4.75
2019-04-22T01:16:43.000Z,5.10
2019-04-22T01:19:16.658Z,4.42
2019-04-22T01:21:40.291Z,4.50
2019-04-22T01:24:12.266Z,4.43
2019-04-22T01:26:41.903Z,4.65
2019-04-22T01:29:05.369Z,4.08
2019-04-22T01:31:30.251Z,4.30
2019-04-22T01:34:10.008Z,4.35
2019-04-22T01:36:51.588Z,4.37
2019-04-22T01:39:21.286Z,4.30
2019-04-22T01:42:04.180Z,4.40
2019-04-22T01:44:31.342Z,4.40
2019-04-22T01:49:27.281Z,4.55
2019-04-22T01:51:59.838Z,4.33
2019-04-22T01:54:29.923Z,4.40
2019-04-22T01:56:55.301Z,4.33
2019-04-22T01:59:19.844Z,4.50
2019-04-22T02:01:57.438Z,4.70
2019-04-22T02:04:31.920Z,4.90
2019-04-22T02:06:57.535Z,4.25
2019-04-22T02:09:34.650Z,4.50
2019-04-22T02:12:00.232Z,4.23
2019-04-22T02:14:33.100Z,4.70
2019-04-22T02:17:02.344Z,4.10
2019-04-22T02:19:51.797Z,4.72
2019-04-22T02:22:04.563Z,4.35
2019-04-22T02:24:33.301Z,4.50
2019-04-22T02:27:01.624Z,4.30
2019-04-22T02:29:37.287Z,4.30
2019-04-22T02:32:12.217Z,4.47
2019-04-22T02:34:46.055Z,4.67
2019-04-22T02:39:57.629Z,4.20
2019-04-22T02:42:13.280Z,4.70
2019-04-22T02:44:37.697Z,4.53
2019-04-22T02:49:39.234Z,4.22
2019-04-22T02:52:20.502Z,4.87
2019-04-22T02:57:28.065Z,4.87
2019-04-22T02:59:39.704Z,4.70
2019-04-22T03:02:14.362Z,4.78
2019-04-22T03:05:00.612Z,4.85
2019-04-22T03:07:12.787Z,4.65
2019-04-22T03:09:41.069Z,5.05
2019-04-22T03:12:16.433Z,5.08
2019-04-22T03:14:56.321Z,4.50
2019-04-22T03:17:21.995Z,4.70
2019-04-22T03:22:16.574Z,4.83
2019-04-22T03:25:05.359Z,4.80
2019-04-22T03:27:16.974Z,4.97
2019-04-22T03:33:05.951Z,4.72
2019-04-22T03:40:22.754Z,4.60
2019-04-22T03:43:10.878Z,4.77
2019-04-22T03:55:23.128Z,5.33
2019-04-22T04:00:35.708Z,5.50
2019-04-22T04:02:53.881Z,5.22
2019-04-22T04:05:33.519Z,5.03
2019-04-22T04:10:35.393Z,5.12
2019-04-22T04:13:03.505Z,5.30
2019-04-22T04:17:55.277Z,5.28
2019-04-22T04:20:28.682Z,4.87
2019-04-22T04:23:08.370Z,5.17
2019-04-22T04:25:40.946Z,5.70
2019-04-22T04:28:24.335Z,5.30
2019-04-22T04:30:30.151Z,5.42
2019-04-22T04:37:58.907Z,5.37
2019-04-22T04:40:46.175Z,5.60
2019-04-22T04:45:39.873Z,5.62
2019-04-22T04:48:14.685Z,5.58
2019-04-22T04:50:32.101Z,5.73
2019-04-22T04:55:28.391Z,5.53
2019-04-22T05:03:17.377Z,5.80
2019-04-22T05:05:31.522Z,5.83
2019-04-22T05:20:53.189Z,5.87
2019-04-22T05:23:05.775Z,5.87
2019-04-22T05:25:33.825Z,6.00
2019-04-22T05:28:11.784Z,5.83
2019-04-22T05:30:39.539Z,6.20
2019-04-22T05:33:07.354Z,6.17
2019-04-22T05:35:41.337Z,6.00
2019-04-22T05:40:34.886Z,6.35
2019-04-22T05:43:16.242Z,6.85
2019-04-22T05:45:43.080Z,5.83
2019-04-22T05:48:18.953Z,6.30
2019-04-22T05:50:45.240Z,6.37
2019-04-22T05:53:13.210Z,6.78
2019-04-22T05:56:15.424Z,5.90
2019-04-22T05:58:22.955Z,6.25
2019-04-22T06:03:39.136Z,6.47
2019-04-22T06:06:13.729Z,6.40
2019-04-22T06:08:48.802Z,6.28
2019-04-22T06:11:22.296Z,6.15
2019-04-22T06:13:40.456Z,6.37
2019-04-22T06:16:21.753Z,5.90
2019-04-22T06:18:55.128Z,5.90
2019-04-22T06:21:40.170Z,6.08
2019-04-22T06:23:56.328Z,6.17
2019-04-22T06:26:30.955Z,5.80
2019-04-22T06:28:54.878Z,5.65
2019-04-22T06:31:28.167Z,5.50
2019-04-22T06:34:06.816Z,5.90
2019-04-22T06:36:30.940Z,5.40
2019-04-22T06:39:05.274Z,5.83
2019-04-22T06:41:31.558Z,6.00
2019-04-22T06:44:04.800Z,5.50
2019-04-22T06:46:36.720Z,5.75
2019-04-22T06:49:03.233Z,5.40
2019-04-22T06:51:35.619Z,5.03
2019-04-22T06:54:03.402Z,4.97
2019-04-22T06:56:41.310Z,5.55
2019-04-22T06:59:06.906Z,5.28
2019-04-22T07:02:00.437Z,5.28
2019-04-22T07:04:14.107Z,5.40
2019-04-22T07:06:41.652Z,5.65
2019-04-22T07:09:28.498Z,5.30
2019-04-22T07:11:36.680Z,5.35
2019-04-22T07:16:43.233Z,5.22
2019-04-22T07:19:13.587Z,5.37
2019-04-22T07:21:46.891Z,5.40
2019-04-22T07:24:28.255Z,5.20
2019-04-22T07:26:44.856Z,5.05
2019-04-22T07:29:16.227Z,5.10
2019-04-22T07:31:43.127Z,5.08
2019-04-22T07:34:19.661Z,5.20
2019-04-22T07:39:16.053Z,5.65
2019-04-22T07:41:46.054Z,4.50
2019-04-22T07:44:32.443Z,4.75
2019-04-22T07:46:49.945Z,4.70
2019-04-22T07:49:23.223Z,4.37
2019-04-22T07:51:46.684Z,4.45
2019-04-22T07:54:39.710Z,4.25
2019-04-22T07:56:53.932Z,4.50
2019-04-22T07:59:22.237Z,3.72
2019-04-22T08:01:50.470Z,4.08
2019-04-22T08:06:52.311Z,3.80
2019-04-22T08:14:22.472Z,3.65
2019-04-22T08:17:01.465Z,3.70
2019-04-22T08:19:28.126Z,3.90
2019-04-22T08:21:52.176Z,4.20
2019-04-22T08:24:22.658Z,4.15
2019-04-22T08:26:56.450Z,3.70
2019-04-22T08:29:32.781Z,3.90
2019-04-22T08:31:57.938Z,4.05
2019-04-22T08:34:25.950Z,4.10
2019-04-22T08:37:25.608Z,3.75
2019-04-22T08:39:25.316Z,4.10
2019-04-22T08:41:51.293Z,3.95
2019-04-22T08:44:49.387Z,4.05
2019-04-22T08:47:05.792Z,4.15
2019-04-22T08:49:32.204Z,4.30
2019-04-22T08:52:03.890Z,4.10
2019-04-22T08:54:31.181Z,3.83
2019-04-22T08:57:06.708Z,4.10
2019-04-22T08:59:28.358Z,3.97
2019-04-22T09:02:06.278Z,4.35
2019-04-22T09:04:30.886Z,3.98
2019-04-22T09:07:13.014Z,4.08
2019-04-22T09:09:31.469Z,4.12
2019-04-22T09:12:12.645Z,4.08
2019-04-22T09:14:40.602Z,3.95
2019-04-22T09:17:21.370Z,4.00
2019-04-22T09:19:36.473Z,3.60
2019-04-22T09:22:04.985Z,3.67
2019-04-22T09:24:35.609Z,3.80
2019-04-22T09:27:10.093Z,4.15
2019-04-22T09:29:39.513Z,4.00
2019-04-22T09:32:14.806Z,3.95
2019-04-22T09:34:41.700Z,3.98
2019-04-22T09:37:11.909Z,4.00
2019-04-22T09:39:41.382Z,4.05
2019-04-22T09:42:14.532Z,4.10
2019-04-22T09:44:41.720Z,3.90
2019-04-22T09:47:12.831Z,3.77
2019-04-22T09:52:11.602Z,4.20
2019-04-22T09:54:49.256Z,4.30
2019-04-22T09:57:20.398Z,4.08
2019-04-22T09:59:43.383Z,4.37
2019-04-22T10:04:46.890Z,4.20
2019-04-22T10:07:15.281Z,3.80
2019-04-22T10:10:07.447Z,3.80
2019-04-22T10:12:19.344Z,3.92
2019-04-22T10:14:45.687Z,4.23
2019-04-22T10:17:15.519Z,3.77
2019-04-22T10:19:47.992Z,3.27
2019-04-22T10:22:19.896Z,3.37
2019-04-22T10:24:44.698Z,3.60
2019-04-22T10:27:14.043Z,3.52
2019-04-22T10:29:54.263Z,3.20
2019-04-22T10:32:11.261Z,3.52
2019-04-22T10:34:34.676Z,3.20
2019-04-22T10:36:59.964Z,3.17
2019-04-22T10:39:36.783Z,3.33
2019-04-22T10:41:56.802Z,3.33
2019-04-22T10:44:27.041Z,3.43
2019-04-22T10:46:56.138Z,3.35
2019-04-22T10:49:26.444Z,3.50
2019-04-22T10:51:55.448Z,3.25
2019-04-22T10:54:25.379Z,3.20
2019-04-22T10:56:55.086Z,3.50
2019-04-22T10:59:24.671Z,3.12
2019-04-22T11:01:54.954Z,3.42
2019-04-22T11:04:23.901Z,3.50
2019-04-22T11:06:57.697Z,3.20
2019-04-22T11:09:23.889Z,3.30
2019-04-22T11:12:01.735Z,3.20
2019-04-22T11:14:24.062Z,3.60
2019-04-22T11:16:53.356Z,3.60
2019-04-22T11:19:23.464Z,3.30
2019-04-22T11:22:03.365Z,3.30
2019-04-22T11:24:23.081Z,3.50
2019-04-22T11:26:52.772Z,3.92
2019-04-22T11:29:23.642Z,4.10
2019-04-22T11:31:52.558Z,3.30
2019-04-22T11:34:21.443Z,3.98
2019-04-22T11:36:50.550Z,3.95
2019-04-22T11:39:19.801Z,3.72
2019-04-22T11:41:49.847Z,3.85
2019-04-22T11:44:19.210Z,3.58
2019-04-22T11:46:49.443Z,3.70
2019-04-22T11:49:18.465Z,3.85
2019-04-22T11:51:47.778Z,3.60
2019-04-22T11:54:17.036Z,3.85
2019-04-22T11:56:47.346Z,3.77
2019-04-22T11:59:16.468Z,3.95
2019-04-22T12:01:46.657Z,3.87
2019-04-22T12:04:16.052Z,3.80
2019-04-22T12:06:46.172Z,3.60
2019-04-22T12:09:17.392Z,3.62
2019-04-22T12:11:46.852Z,3.70
2019-04-22T12:14:15.969Z,3.58
2019-04-22T12:16:45.529Z,3.70
2019-04-22T12:19:15.661Z,3.30
2019-04-22T12:21:44.895Z,3.60
2019-04-22T12:24:15.053Z,3.50
2019-04-22T12:26:44.259Z,3.90
2019-04-22T12:29:13.299Z,3.60
2019-04-22T12:31:42.401Z,3.85
2019-04-22T12:34:11.335Z,3.70
2019-04-22T12:36:40.463Z,3.53
2019-04-22T12:39:09.817Z,3.80
2019-04-22T12:41:40.057Z,4.08
2019-04-22T12:44:09.363Z,3.60
2019-04-22T12:46:39.120Z,3.70
2019-04-22T12:49:08.035Z,3.90
2019-04-22T12:51:36.919Z,3.52
2019-04-22T12:54:06.888Z,4.08
2019-04-22T12:56:35.808Z,3.42
2019-04-22T12:59:05.662Z,3.52
2019-04-22T13:01:35.110Z,3.60
2019-04-22T13:04:09.349Z,3.77
2019-04-22T13:06:35.582Z,3.73
2019-04-22T13:09:06.612Z,3.65
2019-04-22T13:11:36.919Z,3.40
2019-04-22T13:14:07.176Z,3.58
2019-04-22T13:16:36.068Z,3.62
2019-04-22T13:19:11.130Z,3.30
2019-04-22T13:21:36.499Z,3.65
2019-04-22T13:24:06.952Z,3.42
2019-04-22T13:26:36.057Z,3.50
2019-04-22T13:29:05.266Z,3.50
2019-04-22T13:31:34.928Z,3.93
2019-04-22T13:34:04.202Z,3.75
2019-04-22T13:36:34.645Z,3.60
2019-04-22T13:39:05.037Z,3.33
2019-04-22T13:41:40.494Z,2.90
2019-04-22T13:44:04.990Z,3.10
2019-04-22T13:46:35.472Z,3.00
2019-04-22T13:49:31.520Z,3.10
2019-04-22T13:52:20.793Z,2.98
2019-04-22T13:56:55.117Z,3.27
2019-04-22T13:59:16.740Z,3.30
2019-04-22T14:01:38.638Z,3.37
2019-04-22T14:04:10.298Z,3.30
2019-04-22T14:06:40.446Z,3.08
2019-04-22T14:09:09.677Z,3.30
2019-04-22T14:11:48.778Z,3.42
2019-04-22T14:14:09.258Z,3.20
2019-04-22T14:16:38.093Z,3.22
2019-04-22T14:19:07.860Z,3.37
2019-04-22T14:21:36.849Z,3.08
2019-04-22T14:24:07.401Z,2.92
2019-04-22T14:26:52.415Z,3.15
2019-04-22T14:29:07.901Z,2.85
2019-04-22T14:31:38.235Z,3.33
2019-04-22T14:34:08.183Z,3.30
2019-04-22T14:36:37.460Z,3.40
2019-04-22T14:39:10.077Z,3.47
2019-04-22T14:41:55.425Z,3.42
2019-04-22T14:47:09.137Z,3.10
2019-04-22T14:49:36.882Z,3.35
2019-04-22T14:52:10.803Z,3.08
2019-04-22T14:54:28.476Z,3.35
2019-04-22T14:56:42.315Z,3.10
2019-04-22T14:59:13.392Z,3.30
2019-04-22T15:01:43.512Z,3.55
2019-04-22T15:04:13.314Z,3.22
2019-04-22T15:06:45.153Z,3.15
2019-04-22T15:09:14.365Z,3.27
2019-04-22T15:11:53.011Z,3.12
2019-04-22T15:14:15.090Z,3.20
2019-04-22T15:16:46.900Z,3.27
2019-04-22T15:19:17.904Z,3.07
2019-04-22T15:21:47.157Z,2.87
2019-04-22T15:24:26.864Z,3.17
2019-04-22T15:26:58.652Z,3.22
2019-04-22T15:29:29.368Z,3.15
2019-04-22T15:31:59.728Z,3.10
2019-04-22T15:34:30.382Z,2.98
2019-04-22T15:37:00.090Z,2.95
2019-04-22T15:39:29.315Z,3.40
2019-04-22T15:42:09.782Z,3.02
2019-04-22T15:44:30.246Z,3.20
2019-04-22T15:47:00.693Z,2.80
2019-04-22T15:49:29.846Z,3.60
2019-04-22T15:52:00.748Z,3.02
2019-04-22T15:54:29.815Z,3.10
2019-04-22T15:57:00.001Z,2.90
2019-04-22T15:59:45.013Z,2.98
2019-04-22T16:02:00.751Z,3.10
2019-04-22T16:04:30.840Z,3.62
2019-04-22T16:07:01.087Z,3.08
2019-04-22T16:09:31.245Z,3.00
2019-04-22T16:12:12.579Z,3.40
2019-04-22T16:14:37.179Z,3.12
2019-04-22T16:17:01.166Z,3.00
2019-04-22T16:19:30.943Z,3.08
2019-04-22T16:22:05.575Z,3.10
2019-04-22T16:24:36.085Z,2.80
2019-04-22T16:27:06.631Z,2.80
2019-04-22T16:29:35.357Z,3.10
2019-04-22T16:32:05.352Z,3.40
2019-04-22T16:34:36.042Z,3.00
2019-04-22T16:37:05.042Z,3.20
2019-04-22T16:39:34.014Z,2.80
2019-04-22T16:42:04.730Z,2.65
2019-04-22T16:44:34.488Z,3.00
2019-04-22T16:47:08.017Z,2.80
2019-04-22T16:49:37.358Z,2.70
2019-04-22T16:52:07.885Z,2.72
2019-04-22T16:54:36.947Z,2.90
2019-04-22T16:57:06.043Z,2.72
2019-04-22T16:59:35.162Z,2.40
2019-04-22T17:02:19.039Z,2.87
2019-04-22T17:05:02.085Z,2.90
2019-04-22T17:07:31.921Z,2.50
2019-04-22T17:10:01.935Z,2.80
2019-04-22T17:12:41.814Z,3.10
2019-04-22T17:15:07.281Z,4.25
2019-04-22T17:17:32.674Z,3.53
2019-04-22T17:20:02.943Z,2.87
2019-04-22T17:22:33.463Z,3.02
2019-04-22T17:25:02.882Z,2.97
2019-04-22T17:27:34.437Z,3.15
2019-04-22T17:30:02.489Z,3.57
2019-04-22T17:32:31.747Z,2.60
2019-04-22T17:35:02.065Z,4.00
2019-04-22T17:37:34.132Z,3.65
2019-04-22T17:40:17.944Z,2.85
2019-04-22T17:42:49.458Z,3.17
2019-04-22T17:45:28.478Z,2.70
2019-04-22T17:48:16.902Z,2.87
2019-04-22T17:50:57.826Z,3.87
2019-04-22T17:53:21.515Z,4.80
2019-04-22T17:55:50.627Z,3.10
2019-04-22T17:58:20.710Z,3.00
2019-04-22T18:00:50.462Z,3.05
2019-04-22T18:03:11.842Z,3.27
2019-04-22T18:05:37.331Z,3.02
2019-04-22T18:08:17.036Z,2.70
2019-04-22T18:10:49.103Z,2.70
2019-04-22T18:13:25.068Z,2.65
2019-04-22T18:15:48.846Z,2.40
2019-04-22T18:18:24.523Z,2.77
2019-04-22T18:20:48.921Z,2.70
2019-04-22T18:23:09.943Z,3.15
2019-04-22T18:25:53.751Z,3.67
2019-04-22T18:28:25.575Z,3.20
2019-04-22T18:30:50.126Z,4.53
2019-04-22T18:33:25.751Z,3.52
2019-04-22T18:35:57.295Z,3.05
2019-04-22T18:38:32.494Z,3.87
2019-04-22T18:40:54.470Z,3.10
2019-04-22T18:43:28.886Z,2.97
2019-04-22T18:46:05.351Z,2.90
2019-04-22T18:48:22.058Z,3.15
2019-04-22T18:51:04.859Z,2.70
2019-04-22T18:53:54.122Z,3.45
2019-04-22T18:56:25.467Z,4.35
2019-04-22T18:58:43.389Z,3.20
2019-04-22T19:01:05.921Z,3.30
2019-04-22T19:03:44.701Z,3.30
2019-04-22T19:06:34.080Z,3.42
2019-04-22T19:09:03.161Z,3.00
2019-04-22T19:11:27.171Z,4.08
2019-04-22T19:14:07.434Z,3.58
2019-04-22T19:19:20.478Z,2.90
2019-04-22T19:21:26.034Z,4.08
2019-04-22T19:24:03.119Z,3.30
2019-04-22T19:26:42.421Z,3.33
2019-04-22T19:28:59.964Z,3.60
2019-04-22T19:31:28.543Z,3.55
2019-04-22T19:34:06.267Z,3.27
2019-04-22T19:36:32.207Z,3.30
2019-04-22T19:38:59.203Z,3.10
2019-04-22T19:41:36.371Z,3.60
2019-04-22T19:44:08.156Z,3.70
2019-04-22T19:46:34.533Z,3.80
2019-04-22T19:49:10.648Z,3.90
2019-04-22T19:51:49.284Z,4.20
2019-04-22T19:54:07.683Z,3.62
2019-04-22T19:56:26.487Z,3.70
2019-04-22T19:59:03.635Z,5.83
2019-04-22T20:01:48.633Z,4.10
2019-04-22T20:04:28.332Z,4.30
2019-04-22T20:06:55.180Z,4.80
2019-04-22T20:09:30.134Z,3.60
2019-04-22T20:11:57.603Z,3.80
2019-04-22T20:14:28.098Z,3.90
2019-04-22T20:16:54.743Z,4.20
2019-04-22T20:19:39.836Z,3.80
2019-04-22T20:22:02.886Z,4.20
2019-04-22T20:24:16.768Z,3.80
2019-04-22T20:27:02.855Z,4.10
2019-04-22T20:29:37.619Z,4.60
2019-04-22T20:32:05.706Z,4.35
2019-04-22T20:34:38.010Z,6.45
2019-04-22T20:37:10.454Z,4.37
2019-04-22T20:39:39.506Z,4.62
2019-04-22T20:42:16.434Z,6.17
2019-04-22T20:44:39.708Z,10.73
2019-04-22T20:47:09.122Z,5.33
2019-04-22T20:49:57.235Z,4.72
2019-04-22T20:52:33.843Z,4.53
2019-04-22T20:55:13.118Z,4.22
2019-04-22T20:57:53.040Z,4.53
2019-04-22T21:00:21.660Z,4.10
2019-04-22T21:03:06.250Z,4.75
2019-04-22T21:05:40.309Z,4.10
2019-04-22T21:08:20.958Z,4.00
2019-04-22T21:10:44.809Z,4.47
2019-04-22T21:13:13.848Z,4.37
2019-04-22T21:15:55.398Z,4.10
2019-04-22T21:18:20.071Z,4.45
2019-04-22T21:20:59.250Z,4.53
2019-04-22T21:23:18.836Z,4.33
2019-04-22T21:25:54.292Z,3.92
2019-04-22T21:28:27.279Z,4.08
2019-04-22T21:30:52.048Z,4.20
2019-04-22T21:33:19.715Z,4.60
2019-04-22T21:36:22.034Z,4.40
2019-04-22T21:38:34.470Z,4.12
2019-04-22T21:40:59.935Z,3.90
2019-04-22T21:43:30.751Z,4.15
2019-04-22T21:46:04.878Z,4.20
2019-04-22T21:48:36.965Z,4.25
2019-04-22T21:51:04.898Z,4.42
2019-04-22T21:53:41.737Z,4.12
2019-04-22T21:59:12.456Z,4.30
2019-04-22T22:04:20.696Z,4.30
2019-04-22T22:06:50.090Z,4.28
2019-04-22T22:09:37.954Z,4.60
2019-04-22T22:11:59.378Z,4.45
2019-04-22T22:14:34.833Z,4.75
2019-04-22T22:16:56.114Z,3.83
2019-04-22T22:19:37.750Z,4.40
2019-04-22T22:22:25.027Z,4.25
2019-04-22T22:24:46.330Z,4.35
2019-04-22T22:27:18.773Z,4.40
2019-04-22T22:30:23.598Z,4.72
2019-04-22T22:32:26.068Z,4.40
2019-04-22T22:34:52.858Z,4.28
2019-04-22T22:37:12.251Z,4.70
2019-04-22T22:39:42.000Z,4.33
2019-04-22T22:42:30.243Z,4.53
2019-04-22T22:45:01.750Z,4.92
2019-04-22T22:47:45.594Z,4.67
2019-04-22T22:50:40.355Z,4.70
2019-04-22T22:55:41.025Z,5.03
2019-04-22T22:58:16.610Z,4.90
2019-04-22T23:00:44.072Z,5.15
2019-04-22T23:03:39.983Z,4.50
2019-04-22T23:05:50.434Z,4.62
2019-04-22T23:08:20.427Z,4.65
2019-04-22T23:10:58.295Z,4.92
2019-04-22T23:13:25.855Z,4.73
2019-04-22T23:15:46.116Z,4.90
2019-04-22T23:18:16.224Z,4.87
2019-04-22T23:20:47.882Z,4.70
2019-04-22T23:23:40.878Z,4.90
2019-04-22T23:26:14.056Z,5.15
2019-04-22T23:28:50.620Z,5.03
2019-04-22T23:31:21.151Z,5.17
2019-04-22T23:34:09.206Z,5.00
2019-04-22T23:36:55.901Z,4.78
2019-04-22T23:39:37.329Z,4.97
2019-04-22T23:42:09.759Z,5.10
2019-04-22T23:44:38.051Z,5.08
2019-04-22T23:47:12.153Z,5.07
2019-04-22T23:49:41.973Z,5.08
2019-04-22T23:52:22.685Z,5.08
2019-04-22T23:54:55.463Z,4.90
2019-04-22T23:57:29.772Z,5.33
